sensor_id;sensor_type;location;lat;lon;timestamp;pressure;altitude;pressure_sealevel;temperature;humidity
10462;BME280;5278;42.656;23.374;2024-02-26T00:01:03;94193.38;;;10.84;85.69
10462;BME280;5278;42.656;23.374;2024-02-26T00:03:29;94198.81;;;10.68;86.27
10462;BME280;5278;42.656;23.374;2024-02-26T00:05:59;94196.78;;;10.63;86.69
10462;BME280;5278;42.656;23.374;2024-02-26T00:08:25;94188.91;;;10.57;87.14
10462;BME280;5278;42.656;23.374;2024-02-26T00:10:52;94184.47;;;10.51;88.05
10462;BME280;5278;42.656;23.374;2024-02-26T00:13:18;94183.72;;;10.57;88.56
10462;BME280;5278;42.656;23.374;2024-02-26T00:15:45;94185.50;;;10.56;88.83
10462;BME280;5278;42.656;23.374;2024-02-26T00:18:12;94174.25;;;10.49;88.51
10462;BME280;5278;42.656;23.374;2024-02-26T00:20:39;94193.75;;;10.60;88.96
10462;BME280;5278;42.656;23.374;2024-02-26T00:23:09;94187.00;;;10.65;88.54
10462;BME280;5278;42.656;23.374;2024-02-26T00:25:36;94192.47;;;10.70;88.93
10462;BME280;5278;42.656;23.374;2024-02-26T00:28:04;94178.28;;;10.73;88.41
10462;BME280;5278;42.656;23.374;2024-02-26T00:30:31;94184.59;;;10.64;89.08
10462;BME280;5278;42.656;23.374;2024-02-26T00:33:00;94176.81;;;10.64;89.21
10462;BME280;5278;42.656;23.374;2024-02-26T00:35:35;94165.66;;;10.70;89.11
10462;BME280;5278;42.656;23.374;2024-02-26T00:38:02;94164.91;;;10.76;89.54
10462;BME280;5278;42.656;23.374;2024-02-26T00:40:30;94162.94;;;10.78;89.14
10462;BME280;5278;42.656;23.374;2024-02-26T00:42:57;94163.34;;;10.82;89.16
10462;BME280;5278;42.656;23.374;2024-02-26T00:45:24;94167.94;;;10.79;89.05
10462;BME280;5278;42.656;23.374;2024-02-26T00:47:50;94156.19;;;10.84;89.21
10462;BME280;5278;42.656;23.374;2024-02-26T00:50:17;94155.63;;;10.88;89.27
10462;BME280;5278;42.656;23.374;2024-02-26T00:52:44;94154.13;;;11.28;97.72
10462;BME280;5278;42.656;23.374;2024-02-26T00:55:11;94056.19;;;13.34;97.26
10462;BME280;5278;42.656;23.374;2024-02-26T00:57:39;94132.09;;;15.65;90.65
10462;BME280;5278;42.656;23.374;2024-02-26T01:00:06;94124.56;;;16.71;82.15
10462;BME280;5278;42.656;23.374;2024-02-26T01:02:34;94129.22;;;17.81;72.85
10462;BME280;5278;42.656;23.374;2024-02-26T01:05:00;94115.00;;;18.33;67.93
10462;BME280;5278;42.656;23.374;2024-02-26T01:07:28;94120.66;;;18.82;62.10
10462;BME280;5278;42.656;23.374;2024-02-26T01:09:58;94117.50;;;18.12;56.77
10462;BME280;5278;42.656;23.374;2024-02-26T01:12:25;94122.94;;;17.12;58.08
10462;BME280;5278;42.656;23.374;2024-02-26T01:14:53;94128.09;;;16.17;59.90
10462;BME280;5278;42.656;23.374;2024-02-26T01:17:20;94119.88;;;15.34;62.61
10462;BME280;5278;42.656;23.374;2024-02-26T01:19:46;94128.88;;;14.71;65.48
10462;BME280;5278;42.656;23.374;2024-02-26T01:22:13;94128.56;;;14.16;68.19
10462;BME280;5278;42.656;23.374;2024-02-26T01:24:40;94120.13;;;13.69;70.85
10462;BME280;5278;42.656;23.374;2024-02-26T01:27:06;94082.50;;;13.00;73.25
10462;BME280;5278;42.656;23.374;2024-02-26T01:29:34;94123.84;;;12.89;75.00
10462;BME280;5278;42.656;23.374;2024-02-26T01:32:02;94135.25;;;12.62;76.66
10462;BME280;5278;42.656;23.374;2024-02-26T01:34:30;94123.59;;;12.45;78.43
10462;BME280;5278;42.656;23.374;2024-02-26T01:36:57;94118.56;;;12.37;80.09
10462;BME280;5278;42.656;23.374;2024-02-26T01:39:23;94128.53;;;12.14;80.66
10462;BME280;5278;42.656;23.374;2024-02-26T01:41:50;94123.41;;;11.86;81.12
10462;BME280;5278;42.656;23.374;2024-02-26T01:44:17;94126.72;;;11.66;82.29
10462;BME280;5278;42.656;23.374;2024-02-26T01:46:43;94130.19;;;11.39;84.29
10462;BME280;5278;42.656;23.374;2024-02-26T01:49:12;94127.50;;;11.26;84.71
10462;BME280;5278;42.656;23.374;2024-02-26T01:51:39;94122.91;;;11.28;85.79
10462;BME280;5278;42.656;23.374;2024-02-26T01:54:08;94126.09;;;11.23;86.18
10462;BME280;5278;42.656;23.374;2024-02-26T01:56:35;94103.97;;;11.06;87.07
10462;BME280;5278;42.656;23.374;2024-02-26T01:59:03;94110.78;;;11.07;87.48
10462;BME280;5278;42.656;23.374;2024-02-26T02:01:32;94114.56;;;11.05;87.68
10462;BME280;5278;42.656;23.374;2024-02-26T02:04:00;94113.16;;;11.02;88.17
10462;BME280;5278;42.656;23.374;2024-02-26T02:06:28;94109.16;;;11.06;88.38
10462;BME280;5278;42.656;23.374;2024-02-26T02:08:55;94109.94;;;11.00;89.20
10462;BME280;5278;42.656;23.374;2024-02-26T02:11:23;94114.75;;;11.03;89.50
10462;BME280;5278;42.656;23.374;2024-02-26T02:13:50;94109.78;;;11.08;90.07
10462;BME280;5278;42.656;23.374;2024-02-26T02:16:17;94108.81;;;11.09;89.99
10462;BME280;5278;42.656;23.374;2024-02-26T02:18:43;94113.94;;;11.03;90.59
10462;BME280;5278;42.656;23.374;2024-02-26T02:21:12;94109.16;;;11.06;90.74
10462;BME280;5278;42.656;23.374;2024-02-26T02:23:38;94108.16;;;11.01;90.91
10462;BME280;5278;42.656;23.374;2024-02-26T02:26:05;94117.59;;;11.08;91.07
10462;BME280;5278;42.656;23.374;2024-02-26T02:28:32;94123.19;;;11.05;90.72
10462;BME280;5278;42.656;23.374;2024-02-26T02:30:59;94106.38;;;11.08;90.74
10462;BME280;5278;42.656;23.374;2024-02-26T02:33:26;94122.38;;;11.05;90.85
10462;BME280;5278;42.656;23.374;2024-02-26T02:35:53;94112.78;;;11.05;90.69
10462;BME280;5278;42.656;23.374;2024-02-26T02:38:21;94115.00;;;11.08;91.07
10462;BME280;5278;42.656;23.374;2024-02-26T02:40:51;94109.16;;;11.06;91.20
10462;BME280;5278;42.656;23.374;2024-02-26T02:43:18;94116.59;;;11.09;91.02
10462;BME280;5278;42.656;23.374;2024-02-26T02:45:44;94127.00;;;11.09;90.93
10462;BME280;5278;42.656;23.374;2024-02-26T02:48:11;94116.78;;;11.08;90.68
10462;BME280;5278;42.656;23.374;2024-02-26T02:50:38;94115.16;;;11.07;90.38
10462;BME280;5278;42.656;23.374;2024-02-26T02:53:05;94105.31;;;10.96;90.71
10462;BME280;5278;42.656;23.374;2024-02-26T02:55:33;94117.97;;;11.05;90.43
10462;BME280;5278;42.656;23.374;2024-02-26T02:57:59;94116.16;;;11.06;90.15
10462;BME280;5278;42.656;23.374;2024-02-26T03:00:26;94079.78;;;10.78;89.97
10462;BME280;5278;42.656;23.374;2024-02-26T03:02:53;94120.59;;;11.12;90.20
10462;BME280;5278;42.656;23.374;2024-02-26T03:05:20;94072.97;;;10.77;89.92
10462;BME280;5278;42.656;23.374;2024-02-26T03:07:46;94131.81;;;11.12;89.72
10462;BME280;5278;42.656;23.374;2024-02-26T03:10:13;94128.84;;;11.15;90.32
10462;BME280;5278;42.656;23.374;2024-02-26T03:12:41;94127.66;;;11.18;90.23
10462;BME280;5278;42.656;23.374;2024-02-26T03:15:09;94133.59;;;11.12;90.61
10462;BME280;5278;42.656;23.374;2024-02-26T03:17:37;94120.81;;;11.10;91.50
10462;BME280;5278;42.656;23.374;2024-02-26T03:20:05;94128.78;;;11.09;91.78
10462;BME280;5278;42.656;23.374;2024-02-26T03:22:33;94121.56;;;11.04;92.17
10462;BME280;5278;42.656;23.374;2024-02-26T03:25:00;94124.53;;;11.01;91.59
10462;BME280;5278;42.656;23.374;2024-02-26T03:27:27;94115.75;;;11.02;91.15
10462;BME280;5278;42.656;23.374;2024-02-26T03:29:55;94105.09;;;10.97;91.15
10462;BME280;5278;42.656;23.374;2024-02-26T03:32:22;94110.28;;;10.91;91.83
10462;BME280;5278;42.656;23.374;2024-02-26T03:34:49;94105.69;;;10.93;92.01
10462;BME280;5278;42.656;23.374;2024-02-26T03:37:19;94102.34;;;10.99;91.88
10462;BME280;5278;42.656;23.374;2024-02-26T03:39:46;94105.91;;;10.98;91.91
10462;BME280;5278;42.656;23.374;2024-02-26T03:42:12;94104.78;;;11.07;91.88
10462;BME280;5278;42.656;23.374;2024-02-26T03:44:39;94110.19;;;11.05;91.84
10462;BME280;5278;42.656;23.374;2024-02-26T03:47:07;94094.59;;;11.05;91.47
10462;BME280;5278;42.656;23.374;2024-02-26T03:49:34;94099.38;;;11.08;92.20
10462;BME280;5278;42.656;23.374;2024-02-26T03:52:00;94097.78;;;11.07;91.75
10462;BME280;5278;42.656;23.374;2024-02-26T03:54:27;94094.53;;;10.99;91.98
10462;BME280;5278;42.656;23.374;2024-02-26T03:56:54;94103.97;;;11.06;91.85
10462;BME280;5278;42.656;23.374;2024-02-26T03:59:20;94101.94;;;11.02;92.44
10462;BME280;5278;42.656;23.374;2024-02-26T04:01:49;94077.84;;;10.87;92.10
10462;BME280;5278;42.656;23.374;2024-02-26T04:04:18;94099.72;;;10.99;92.64
10462;BME280;5278;42.656;23.374;2024-02-26T04:06:44;93931.09;;;9.65;92.85
10462;BME280;5278;42.656;23.374;2024-02-26T04:09:13;94105.50;;;10.94;93.33
10462;BME280;5278;42.656;23.374;2024-02-26T04:11:40;94102.75;;;11.02;92.72
10462;BME280;5278;42.656;23.374;2024-02-26T04:14:08;94095.94;;;11.01;92.67
10462;BME280;5278;42.656;23.374;2024-02-26T04:16:37;94050.16;;;10.72;92.44
10462;BME280;5278;42.656;23.374;2024-02-26T04:19:03;94089.53;;;10.97;92.40
10462;BME280;5278;42.656;23.374;2024-02-26T04:21:31;94085.94;;;10.98;90.14
10462;BME280;5278;42.656;23.374;2024-02-26T04:23:58;94085.88;;;10.92;89.72
10462;BME280;5278;42.656;23.374;2024-02-26T04:26:27;94084.66;;;10.88;89.67
10462;BME280;5278;42.656;23.374;2024-02-26T04:28:53;94076.44;;;10.84;89.10
10462;BME280;5278;42.656;23.374;2024-02-26T04:31:20;94078.19;;;10.77;89.02
10462;BME280;5278;42.656;23.374;2024-02-26T04:33:47;94085.31;;;10.68;89.18
10462;BME280;5278;42.656;23.374;2024-02-26T04:36:14;94093.28;;;10.67;89.84
10462;BME280;5278;42.656;23.374;2024-02-26T04:38:42;94088.09;;;10.67;89.75
10462;BME280;5278;42.656;23.374;2024-02-26T04:41:10;94075.66;;;10.56;89.94
10462;BME280;5278;42.656;23.374;2024-02-26T04:43:37;93994.84;;;10.02;89.95
10462;BME280;5278;42.656;23.374;2024-02-26T04:46:06;94086.38;;;10.53;90.10
10462;BME280;5278;42.656;23.374;2024-02-26T04:48:33;94089.63;;;10.55;90.45
10462;BME280;5278;42.656;23.374;2024-02-26T04:51:00;94100.75;;;10.49;90.33
10462;BME280;5278;42.656;23.374;2024-02-26T04:53:27;94101.88;;;10.40;90.48
10462;BME280;5278;42.656;23.374;2024-02-26T04:55:55;94102.78;;;10.32;90.97
10462;BME280;5278;42.656;23.374;2024-02-26T04:58:22;94095.75;;;10.26;91.57
10462;BME280;5278;42.656;23.374;2024-02-26T05:00:48;94095.69;;;10.19;92.12
10462;BME280;5278;42.656;23.374;2024-02-26T05:03:15;94107.41;;;10.15;92.56
10462;BME280;5278;42.656;23.374;2024-02-26T05:05:42;94111.31;;;10.11;93.38
10462;BME280;5278;42.656;23.374;2024-02-26T05:08:09;94095.50;;;10.06;93.93
10462;BME280;5278;42.656;23.374;2024-02-26T05:10:36;94111.53;;;10.10;94.03
10462;BME280;5278;42.656;23.374;2024-02-26T05:13:07;94113.31;;;10.09;94.96
10462;BME280;5278;42.656;23.374;2024-02-26T05:15:34;94120.44;;;10.01;95.38
10462;BME280;5278;42.656;23.374;2024-02-26T05:18:01;94117.31;;;9.90;96.24
10462;BME280;5278;42.656;23.374;2024-02-26T05:20:27;94135.09;;;9.93;96.68
10462;BME280;5278;42.656;23.374;2024-02-26T05:22:54;94124.09;;;9.91;96.56
10462;BME280;5278;42.656;23.374;2024-02-26T05:25:21;94131.34;;;9.96;96.87
10462;BME280;5278;42.656;23.374;2024-02-26T05:27:47;94131.34;;;9.96;97.04
10462;BME280;5278;42.656;23.374;2024-02-26T05:30:16;94136.16;;;9.99;96.66
10462;BME280;5278;42.656;23.374;2024-02-26T05:32:42;94136.41;;;10.04;97.38
10462;BME280;5278;42.656;23.374;2024-02-26T05:35:09;94137.47;;;10.10;97.31
10462;BME280;5278;42.656;23.374;2024-02-26T05:37:36;94143.00;;;10.21;97.19
10462;BME280;5278;42.656;23.374;2024-02-26T05:40:03;94152.50;;;10.29;96.79
10462;BME280;5278;42.656;23.374;2024-02-26T05:42:30;94150.53;;;10.31;96.74
10462;BME280;5278;42.656;23.374;2024-02-26T05:44:57;94151.38;;;10.38;96.65
10462;BME280;5278;42.656;23.374;2024-02-26T05:47:25;94159.00;;;10.40;96.65
10462;BME280;5278;42.656;23.374;2024-02-26T05:49:52;94155.41;;;10.41;96.56
10462;BME280;5278;42.656;23.374;2024-02-26T05:52:18;94151.13;;;10.54;96.09
10462;BME280;5278;42.656;23.374;2024-02-26T05:54:45;94150.44;;;10.67;95.66
10462;BME280;5278;42.656;23.374;2024-02-26T05:57:12;94146.06;;;10.67;96.16
10462;BME280;5278;42.656;23.374;2024-02-26T05:59:39;94156.56;;;10.81;95.52
10462;BME280;5278;42.656;23.374;2024-02-26T06:02:05;94153.41;;;10.85;94.78
10462;BME280;5278;42.656;23.374;2024-02-26T06:04:33;94161.38;;;10.84;94.77
10462;BME280;5278;42.656;23.374;2024-02-26T06:07:00;94167.25;;;10.92;94.43
10462;BME280;5278;42.656;23.374;2024-02-26T06:09:27;94161.06;;;10.93;93.33
10462;BME280;5278;42.656;23.374;2024-02-26T06:11:53;94165.88;;;10.96;92.54
10462;BME280;5278;42.656;23.374;2024-02-26T06:14:20;94158.31;;;11.01;92.25
10462;BME280;5278;42.656;23.374;2024-02-26T06:16:47;94169.56;;;11.08;91.45
10462;BME280;5278;42.656;23.374;2024-02-26T06:19:13;94169.97;;;11.05;91.61
10462;BME280;5278;42.656;23.374;2024-02-26T06:21:41;94163.19;;;11.11;91.10
10462;BME280;5278;42.656;23.374;2024-02-26T06:24:08;94165.44;;;11.14;91.01
10462;BME280;5278;42.656;23.374;2024-02-26T06:26:35;94171.03;;;11.17;90.51
10462;BME280;5278;42.656;23.374;2024-02-26T06:29:01;94173.28;;;11.20;90.38
10462;BME280;5278;42.656;23.374;2024-02-26T06:31:28;94170.09;;;11.25;89.73
10462;BME280;5278;42.656;23.374;2024-02-26T06:33:55;94168.97;;;11.34;89.31
10462;BME280;5278;42.656;23.374;2024-02-26T06:36:22;94169.63;;;11.43;88.97
10462;BME280;5278;42.656;23.374;2024-02-26T06:38:50;94176.25;;;11.52;88.82
10462;BME280;5278;42.656;23.374;2024-02-26T06:41:17;94166.84;;;11.51;88.87
10462;BME280;5278;42.656;23.374;2024-02-26T06:43:43;94173.09;;;11.56;88.26
10462;BME280;5278;42.656;23.374;2024-02-26T06:46:10;94170.94;;;11.60;87.34
10462;BME280;5278;42.656;23.374;2024-02-26T06:48:37;94168.91;;;11.55;86.41
10462;BME280;5278;42.656;23.374;2024-02-26T06:51:04;94171.53;;;11.62;86.08
10462;BME280;5278;42.656;23.374;2024-02-26T06:53:30;94167.69;;;11.58;86.38
10462;BME280;5278;42.656;23.374;2024-02-26T06:55:59;94136.94;;;11.34;86.37
10462;BME280;5278;42.656;23.374;2024-02-26T06:58:25;94161.69;;;11.57;86.51
10462;BME280;5278;42.656;23.374;2024-02-26T07:00:52;94167.28;;;11.54;86.73
10462;BME280;5278;42.656;23.374;2024-02-26T07:03:18;94180.72;;;11.58;86.88
10462;BME280;5278;42.656;23.374;2024-02-26T07:05:45;94173.06;;;11.50;86.83
10462;BME280;5278;42.656;23.374;2024-02-26T07:08:12;94170.31;;;11.58;86.83
10462;BME280;5278;42.656;23.374;2024-02-26T07:10:39;94182.78;;;11.69;87.22
10462;BME280;5278;42.656;23.374;2024-02-26T07:13:07;94183.63;;;11.76;86.57
10462;BME280;5278;42.656;23.374;2024-02-26T07:15:33;94179.06;;;11.78;86.37
10462;BME280;5278;42.656;23.374;2024-02-26T07:18:00;94193.28;;;11.82;86.37
10462;BME280;5278;42.656;23.374;2024-02-26T07:20:28;94190.53;;;11.90;85.96
10462;BME280;5278;42.656;23.374;2024-02-26T07:22:55;94187.94;;;11.90;85.25
10462;BME280;5278;42.656;23.374;2024-02-26T07:25:22;94184.94;;;11.93;84.73
10462;BME280;5278;42.656;23.374;2024-02-26T07:27:49;94189.97;;;11.95;84.93
10462;BME280;5278;42.656;23.374;2024-02-26T07:30:18;94184.53;;;11.96;84.82
10462;BME280;5278;42.656;23.374;2024-02-26T07:32:44;94178.38;;;12.11;84.55
10462;BME280;5278;42.656;23.374;2024-02-26T07:35:11;94186.03;;;12.19;83.63
10462;BME280;5278;42.656;23.374;2024-02-26T07:37:38;94202.69;;;12.24;83.82
10462;BME280;5278;42.656;23.374;2024-02-26T07:40:06;94191.47;;;12.24;83.78
10462;BME280;5278;42.656;23.374;2024-02-26T07:42:33;94191.13;;;12.40;83.05
10462;BME280;5278;42.656;23.374;2024-02-26T07:45:00;94190.16;;;12.54;81.56
10462;BME280;5278;42.656;23.374;2024-02-26T07:47:28;94189.78;;;12.64;81.60
10462;BME280;5278;42.656;23.374;2024-02-26T07:49:55;94194.00;;;12.71;81.17
10462;BME280;5278;42.656;23.374;2024-02-26T07:52:21;94188.59;;;12.79;81.52
10462;BME280;5278;42.656;23.374;2024-02-26T07:54:48;94188.81;;;12.98;81.03
10462;BME280;5278;42.656;23.374;2024-02-26T07:57:15;94183.00;;;13.15;80.54
10462;BME280;5278;42.656;23.374;2024-02-26T07:59:42;94188.03;;;13.43;79.16
10462;BME280;5278;42.656;23.374;2024-02-26T08:02:10;94175.34;;;13.66;78.35
10462;BME280;5278;42.656;23.374;2024-02-26T08:04:38;94175.16;;;13.68;77.73
10462;BME280;5278;42.656;23.374;2024-02-26T08:07:05;94176.13;;;13.73;77.52
10462;BME280;5278;42.656;23.374;2024-02-26T08:09:32;94174.28;;;13.80;77.60
10462;BME280;5278;42.656;23.374;2024-02-26T08:11:59;94179.09;;;13.90;77.16
10462;BME280;5278;42.656;23.374;2024-02-26T08:14:25;94175.84;;;14.01;76.02
10462;BME280;5278;42.656;23.374;2024-02-26T08:16:52;94181.41;;;14.18;74.82
10462;BME280;5278;42.656;23.374;2024-02-26T08:19:19;94172.16;;;14.15;74.21
10462;BME280;5278;42.656;23.374;2024-02-26T08:21:47;94157.63;;;14.39;72.95
10462;BME280;5278;42.656;23.374;2024-02-26T08:24:13;94175.94;;;14.71;70.95
10462;BME280;5278;42.656;23.374;2024-02-26T08:26:40;94172.66;;;14.82;70.29
10462;BME280;5278;42.656;23.374;2024-02-26T08:29:07;94174.63;;;14.86;70.82
10462;BME280;5278;42.656;23.374;2024-02-26T08:31:33;94152.38;;;15.27;87.51
10462;BME280;5278;42.656;23.374;2024-02-26T08:34:02;94156.31;;;16.33;81.53
10462;BME280;5278;42.656;23.374;2024-02-26T08:36:30;94166.78;;;17.35;68.50
10462;BME280;5278;42.656;23.374;2024-02-26T08:38:58;94157.38;;;18.08;62.17
10462;BME280;5278;42.656;23.374;2024-02-26T08:41:25;94149.91;;;18.29;58.62
10462;BME280;5278;42.656;23.374;2024-02-26T08:43:52;94157.88;;;18.57;57.15
10462;BME280;5278;42.656;23.374;2024-02-26T08:46:19;94144.81;;;18.62;55.49
10462;BME280;5278;42.656;23.374;2024-02-26T08:48:45;94148.56;;;18.66;54.98
10462;BME280;5278;42.656;23.374;2024-02-26T08:51:12;94143.47;;;18.76;54.49
10462;BME280;5278;42.656;23.374;2024-02-26T08:53:39;94148.22;;;19.08;53.32
10462;BME280;5278;42.656;23.374;2024-02-26T08:56:07;94147.75;;;19.44;52.00
10462;BME280;5278;42.656;23.374;2024-02-26T08:58:34;94152.00;;;19.62;50.57
10462;BME280;5278;42.656;23.374;2024-02-26T09:01:01;94156.09;;;19.91;50.21
10462;BME280;5278;42.656;23.374;2024-02-26T09:03:28;94150.34;;;20.16;49.25
10462;BME280;5278;42.656;23.374;2024-02-26T09:05:55;94133.91;;;20.52;48.08
10462;BME280;5278;42.656;23.374;2024-02-26T09:08:22;94105.03;;;20.68;47.09
10462;BME280;5278;42.656;23.374;2024-02-26T09:10:49;94131.56;;;20.83;46.48
10462;BME280;5278;42.656;23.374;2024-02-26T09:13:17;94152.13;;;20.76;46.90
10462;BME280;5278;42.656;23.374;2024-02-26T09:15:44;94144.78;;;20.83;46.69
10462;BME280;5278;42.656;23.374;2024-02-26T09:18:11;94142.31;;;20.71;46.49
10462;BME280;5278;42.656;23.374;2024-02-26T09:20:38;94144.00;;;20.34;48.02
10462;BME280;5278;42.656;23.374;2024-02-26T09:23:05;94127.75;;;19.82;48.74
10462;BME280;5278;42.656;23.374;2024-02-26T09:25:31;94139.38;;;19.30;49.99
10462;BME280;5278;42.656;23.374;2024-02-26T09:27:58;94127.38;;;18.89;50.40
10462;BME280;5278;42.656;23.374;2024-02-26T09:30:27;94135.88;;;18.52;51.91
10462;BME280;5278;42.656;23.374;2024-02-26T09:32:53;94139.81;;;17.97;52.95
10462;BME280;5278;42.656;23.374;2024-02-26T09:35:20;94141.78;;;17.79;54.56
10462;BME280;5278;42.656;23.374;2024-02-26T09:37:47;94140.31;;;17.71;54.65
10462;BME280;5278;42.656;23.374;2024-02-26T09:40:14;94130.00;;;17.46;55.32
10462;BME280;5278;42.656;23.374;2024-02-26T09:42:43;94139.03;;;17.39;56.00
10462;BME280;5278;42.656;23.374;2024-02-26T09:45:16;94136.16;;;17.29;56.80
10462;BME280;5278;42.656;23.374;2024-02-26T09:47:45;94124.31;;;17.26;57.16
10462;BME280;5278;42.656;23.374;2024-02-26T09:50:14;94134.78;;;17.14;57.31
10462;BME280;5278;42.656;23.374;2024-02-26T09:52:43;94133.50;;;16.94;57.37
10462;BME280;5278;42.656;23.374;2024-02-26T09:55:10;94122.13;;;17.11;57.34
10462;BME280;5278;42.656;23.374;2024-02-26T09:57:37;94124.75;;;17.11;56.74
10462;BME280;5278;42.656;23.374;2024-02-26T10:00:07;94127.09;;;16.90;58.17
10462;BME280;5278;42.656;23.374;2024-02-26T10:02:38;94140.63;;;17.16;57.69
10462;BME280;5278;42.656;23.374;2024-02-26T10:05:10;94129.56;;;17.38;56.69
10462;BME280;5278;42.656;23.374;2024-02-26T10:07:39;94125.41;;;17.18;56.56
10462;BME280;5278;42.656;23.374;2024-02-26T10:10:06;94137.88;;;17.11;56.55
10462;BME280;5278;42.656;23.374;2024-02-26T10:12:34;94133.84;;;17.09;57.01
10462;BME280;5278;42.656;23.374;2024-02-26T10:15:01;94125.78;;;17.22;55.55
10462;BME280;5278;42.656;23.374;2024-02-26T10:17:28;94118.72;;;17.23;56.07
10462;BME280;5278;42.656;23.374;2024-02-26T10:20:12;94107.84;;;17.31;56.03
10462;BME280;5278;42.656;23.374;2024-02-26T10:22:40;94118.72;;;17.23;55.87
10462;BME280;5278;42.656;23.374;2024-02-26T10:25:08;94114.59;;;17.50;55.48
10462;BME280;5278;42.656;23.374;2024-02-26T10:27:34;94103.31;;;17.38;54.71
10462;BME280;5278;42.656;23.374;2024-02-26T10:30:02;94095.66;;;17.48;54.93
10462;BME280;5278;42.656;23.374;2024-02-26T10:32:30;94048.25;;;17.31;54.63
10462;BME280;5278;42.656;23.374;2024-02-26T10:34:57;94096.13;;;17.68;53.43
10462;BME280;5278;42.656;23.374;2024-02-26T10:37:25;94078.94;;;17.54;53.72
10462;BME280;5278;42.656;23.374;2024-02-26T10:39:52;94089.44;;;17.54;54.36
10462;BME280;5278;42.656;23.374;2024-02-26T10:42:18;94076.78;;;17.51;54.72
10462;BME280;5278;42.656;23.374;2024-02-26T10:44:45;94075.44;;;17.60;54.11
10462;BME280;5278;42.656;23.374;2024-02-26T10:47:14;94088.22;;;17.68;53.64
10462;BME280;5278;42.656;23.374;2024-02-26T10:49:45;94076.81;;;17.28;54.30
10462;BME280;5278;42.656;23.374;2024-02-26T10:52:14;94084.53;;;16.99;55.20
10462;BME280;5278;42.656;23.374;2024-02-26T10:54:44;94036.84;;;16.79;56.05
10462;BME280;5278;42.656;23.374;2024-02-26T10:57:15;94064.94;;;17.02;55.87
10462;BME280;5278;42.656;23.374;2024-02-26T10:59:44;94071.78;;;17.14;55.09
10462;BME280;5278;42.656;23.374;2024-02-26T11:02:13;94072.59;;;17.27;53.97
10462;BME280;5278;42.656;23.374;2024-02-26T11:04:40;94079.88;;;17.48;53.79
10462;BME280;5278;42.656;23.374;2024-02-26T11:07:09;94093.00;;;17.71;53.30
10462;BME280;5278;42.656;23.374;2024-02-26T11:09:36;94068.91;;;17.51;54.04
10462;BME280;5278;42.656;23.374;2024-02-26T11:12:10;94065.72;;;17.60;53.32
10462;BME280;5278;42.656;23.374;2024-02-26T11:14:39;94072.56;;;17.50;53.02
10462;BME280;5278;42.656;23.374;2024-02-26T11:17:08;94070.72;;;17.39;53.60
10462;BME280;5278;42.656;23.374;2024-02-26T11:19:36;93970.56;;;16.72;53.69
10462;BME280;5278;42.656;23.374;2024-02-26T11:22:04;94052.81;;;17.36;53.56
10462;BME280;5278;42.656;23.374;2024-02-26T11:24:32;94066.88;;;17.53;52.98
10462;BME280;5278;42.656;23.374;2024-02-26T11:27:01;94048.69;;;17.51;52.92
10462;BME280;5278;42.656;23.374;2024-02-26T11:29:37;94065.50;;;17.62;53.32
10462;BME280;5278;42.656;23.374;2024-02-26T11:32:05;94062.41;;;17.65;52.71
10462;BME280;5278;42.656;23.374;2024-02-26T11:34:33;94059.22;;;17.63;52.67
10462;BME280;5278;42.656;23.374;2024-02-26T11:37:09;94048.00;;;17.68;52.47
10462;BME280;5278;42.656;23.374;2024-02-26T11:39:36;94060.41;;;17.84;51.68
10462;BME280;5278;42.656;23.374;2024-02-26T11:42:07;94053.69;;;17.76;51.82
10462;BME280;5278;42.656;23.374;2024-02-26T11:44:36;94061.38;;;17.66;52.22
10462;BME280;5278;42.656;23.374;2024-02-26T11:47:12;94047.44;;;17.66;51.94
10462;BME280;5278;42.656;23.374;2024-02-26T11:49:39;94044.47;;;17.50;51.63
10462;BME280;5278;42.656;23.374;2024-02-26T11:52:08;94055.31;;;17.77;50.81
10462;BME280;5278;42.656;23.374;2024-02-26T11:54:45;94071.22;;;17.47;50.95
10462;BME280;5278;42.656;23.374;2024-02-26T11:57:23;94061.63;;;17.30;52.07
10462;BME280;5278;42.656;23.374;2024-02-26T11:59:51;94070.28;;;17.18;52.12
10462;BME280;5278;42.656;23.374;2024-02-26T12:02:38;94056.94;;;17.20;52.75
10462;BME280;5278;42.656;23.374;2024-02-26T12:05:07;94026.63;;;16.48;52.20
10462;BME280;5278;42.656;23.374;2024-02-26T12:07:34;94053.06;;;17.23;52.43
10462;BME280;5278;42.656;23.374;2024-02-26T12:10:22;94062.75;;;17.34;51.92
10462;BME280;5278;42.656;23.374;2024-02-26T12:12:53;94055.66;;;17.46;51.64
10462;BME280;5278;42.656;23.374;2024-02-26T12:15:24;94051.44;;;17.68;50.09
10462;BME280;5278;42.656;23.374;2024-02-26T12:17:52;94043.00;;;17.94;49.63
10462;BME280;5278;42.656;23.374;2024-02-26T12:20:19;94038.63;;;18.28;48.46
10462;BME280;5278;42.656;23.374;2024-02-26T12:22:46;94041.19;;;18.23;47.78
10462;BME280;5278;42.656;23.374;2024-02-26T12:25:13;94056.19;;;18.39;47.61
10462;BME280;5278;42.656;23.374;2024-02-26T12:27:40;94025.63;;;17.93;48.13
10462;BME280;5278;42.656;23.374;2024-02-26T12:30:08;94050.22;;;18.27;47.84
10462;BME280;5278;42.656;23.374;2024-02-26T12:32:36;94052.75;;;18.22;48.02
10462;BME280;5278;42.656;23.374;2024-02-26T12:35:05;94054.19;;;18.30;47.45
10462;BME280;5278;42.656;23.374;2024-02-26T12:37:32;94051.59;;;18.46;47.06
10462;BME280;5278;42.656;23.374;2024-02-26T12:40:02;94057.91;;;18.45;46.86
10462;BME280;5278;42.656;23.374;2024-02-26T12:42:29;94048.53;;;18.83;45.92
10462;BME280;5278;42.656;23.374;2024-02-26T12:44:57;94038.31;;;19.03;45.39
10462;BME280;5278;42.656;23.374;2024-02-26T12:47:24;94047.16;;;19.47;44.07
10462;BME280;5278;42.656;23.374;2024-02-26T12:49:52;94045.69;;;19.56;43.18
10462;BME280;5278;42.656;23.374;2024-02-26T12:52:19;94041.47;;;19.55;42.82
10462;BME280;5278;42.656;23.374;2024-02-26T12:54:47;94044.53;;;19.47;43.43
10462;BME280;5278;42.656;23.374;2024-02-26T12:57:15;94043.72;;;19.13;43.95
10462;BME280;5278;42.656;23.374;2024-02-26T12:59:42;94040.78;;;18.93;43.74
10462;BME280;5278;42.656;23.374;2024-02-26T13:02:09;94030.03;;;18.95;43.50